sensor_id;sensor_type;location;lat;lon;timestamp;pressure;altitude;pressure_sealevel;temperature;humidity
21359;BME280;13506;50.852;20.632;2023-02-08T00:02:27;100684.47;;;-1.60;89.45
21359;BME280;13506;50.852;20.632;2023-02-08T00:04:55;100687.94;;;-1.58;89.70
21359;BME280;13506;50.852;20.632;2023-02-08T00:07:24;100675.97;;;-1.56;88.98
21359;BME280;13506;50.852;20.632;2023-02-08T00:09:52;100694.81;;;-1.57;89.08
21359;BME280;13506;50.852;20.632;2023-02-08T00:12:20;100698.19;;;-1.59;88.91
21359;BME280;13506;50.852;20.632;2023-02-08T00:14:47;100691.28;;;-1.62;89.86
21359;BME280;13506;50.852;20.632;2023-02-08T00:17:15;100685.41;;;-1.56;89.90
21359;BME280;13506;50.852;20.632;2023-02-08T00:19:43;100698.22;;;-1.56;89.13
21359;BME280;13506;50.852;20.632;2023-02-08T00:22:11;100693.13;;;-1.55;90.22
21359;BME280;13506;50.852;20.632;2023-02-08T00:24:40;100699.16;;;-1.53;89.75
21359;BME280;13506;50.852;20.632;2023-02-08T00:27:08;100697.47;;;-1.51;90.30
21359;BME280;13506;50.852;20.632;2023-02-08T00:29:37;100701.75;;;-1.50;89.58
21359;BME280;13506;50.852;20.632;2023-02-08T00:32:04;100705.16;;;-1.51;89.07
21359;BME280;13506;50.852;20.632;2023-02-08T00:34:33;100706.91;;;-1.48;89.83
21359;BME280;13506;50.852;20.632;2023-02-08T00:37:00;100718.88;;;-1.49;88.99
21359;BME280;13506;50.852;20.632;2023-02-08T00:39:29;100706.06;;;-1.49;89.05
21359;BME280;13506;50.852;20.632;2023-02-08T00:41:58;100711.16;;;-1.50;88.84
21359;BME280;13506;50.852;20.632;2023-02-08T00:44:26;100706.03;;;-1.50;89.84
21359;BME280;13506;50.852;20.632;2023-02-08T00:46:54;100709.44;;;-1.50;89.85
21359;BME280;13506;50.852;20.632;2023-02-08T00:49:22;100706.94;;;-1.47;89.53
21359;BME280;13506;50.852;20.632;2023-02-08T00:51:50;100704.38;;;-1.45;90.01
21359;BME280;13506;50.852;20.632;2023-02-08T00:54:19;100713.66;;;-1.55;90.04
21359;BME280;13506;50.852;20.632;2023-02-08T00:56:47;100711.09;;;-1.55;90.24
21359;BME280;13506;50.852;20.632;2023-02-08T00:59:17;100720.50;;;-1.54;90.41
21359;BME280;13506;50.852;20.632;2023-02-08T01:01:45;100713.66;;;-1.55;90.39
21359;BME280;13506;50.852;20.632;2023-02-08T01:04:13;100721.34;;;-1.55;90.34
21359;BME280;13506;50.852;20.632;2023-02-08T01:06:41;100718.78;;;-1.55;90.35
21359;BME280;13506;50.852;20.632;2023-02-08T01:09:11;100721.31;;;-1.56;90.85
21359;BME280;13506;50.852;20.632;2023-02-08T01:11:39;100721.38;;;-1.53;90.49
21359;BME280;13506;50.852;20.632;2023-02-08T01:14:07;100715.28;;;-1.61;91.05
21359;BME280;13506;50.852;20.632;2023-02-08T01:16:38;100712.75;;;-1.58;91.52
21359;BME280;13506;50.852;20.632;2023-02-08T01:19:06;100722.19;;;-1.56;91.10
21359;BME280;13506;50.852;20.632;2023-02-08T01:21:37;100726.31;;;-1.64;92.92
21359;BME280;13506;50.852;20.632;2023-02-08T01:24:06;100722.97;;;-1.60;92.23
21359;BME280;13506;50.852;20.632;2023-02-08T01:26:34;100724.78;;;-1.54;91.69
21359;BME280;13506;50.852;20.632;2023-02-08T01:29:06;100723.06;;;-1.54;91.32
21359;BME280;13506;50.852;20.632;2023-02-08T01:31:37;100715.47;;;-1.48;91.77
21359;BME280;13506;50.852;20.632;2023-02-08T01:34:06;100710.34;;;-1.48;91.12
21359;BME280;13506;50.852;20.632;2023-02-08T01:36:35;100722.34;;;-1.47;91.91
21359;BME280;13506;50.852;20.632;2023-02-08T01:39:05;100717.22;;;-1.47;91.47
21359;BME280;13506;50.852;20.632;2023-02-08T01:41:36;100718.91;;;-1.46;92.21
21359;BME280;13506;50.852;20.632;2023-02-08T01:45:07;100727.41;;;-1.50;92.14
21359;BME280;13506;50.852;20.632;2023-02-08T01:46:57;100718.00;;;-1.51;92.44
21359;BME280;13506;50.852;20.632;2023-02-08T01:49:27;100734.28;;;-1.49;92.56
21359;BME280;13506;50.852;20.632;2023-02-08T01:52:00;100719.75;;;-1.48;92.70
21359;BME280;13506;50.852;20.632;2023-02-08T01:54:35;100719.75;;;-1.48;92.48
21359;BME280;13506;50.852;20.632;2023-02-08T01:57:06;100726.59;;;-1.49;91.96
21359;BME280;13506;50.852;20.632;2023-02-08T01:59:38;100731.69;;;-1.50;92.63
21359;BME280;13506;50.852;20.632;2023-02-08T02:02:11;100727.38;;;-1.53;92.68
21359;BME280;13506;50.852;20.632;2023-02-08T02:04:41;100727.28;;;-1.59;94.37
21359;BME280;13506;50.852;20.632;2023-02-08T02:07:09;100734.09;;;-1.61;93.88
21359;BME280;13506;50.852;20.632;2023-02-08T02:09:44;100730.66;;;-1.60;94.06
21359;BME280;13506;50.852;20.632;2023-02-08T02:12:14;100732.34;;;-1.62;94.16
21359;BME280;13506;50.852;20.632;2023-02-08T02:14:44;100732.41;;;-1.59;94.18
21359;BME280;13506;50.852;20.632;2023-02-08T02:17:16;100733.22;;;-1.60;93.64
21359;BME280;13506;50.852;20.632;2023-02-08T02:19:54;100734.91;;;-1.62;94.71
21359;BME280;13506;50.852;20.632;2023-02-08T02:22:44;100738.31;;;-1.64;94.92
21359;BME280;13506;50.852;20.632;2023-02-08T02:25:40;100733.84;;;-1.76;96.67
21359;BME280;13506;50.852;20.632;2023-02-08T02:28:44;100732.97;;;-1.78;96.17
21359;BME280;13506;50.852;20.632;2023-02-08T02:31:56;100726.16;;;-1.75;96.08
21359;BME280;13506;50.852;20.632;2023-02-08T02:34:36;100735.56;;;-1.75;95.33
21359;BME280;13506;50.852;20.632;2023-02-08T02:37:15;100738.19;;;-1.71;94.71
21359;BME280;13506;50.852;20.632;2023-02-08T02:39:53;100737.31;;;-1.73;95.62
21359;BME280;13506;50.852;20.632;2023-02-08T02:42:30;100748.38;;;-1.75;96.13
21359;BME280;13506;50.852;20.632;2023-02-08T02:45:28;100736.38;;;-1.78;95.60
21359;BME280;13506;50.852;20.632;2023-02-08T02:48:07;100739.72;;;-1.82;96.44
21359;BME280;13506;50.852;20.632;2023-02-08T02:50:43;100743.91;;;-1.89;96.66
21359;BME280;13506;50.852;20.632;2023-02-08T02:53:18;100747.34;;;-1.87;97.04
21359;BME280;13506;50.852;20.632;2023-02-08T02:55:53;100740.44;;;-1.91;97.61
21359;BME280;13506;50.852;20.632;2023-02-08T02:58:24;100753.31;;;-1.88;97.00
21359;BME280;13506;50.852;20.632;2023-02-08T03:00:53;100753.38;;;-1.84;96.13
21359;BME280;13506;50.852;20.632;2023-02-08T03:03:26;100755.97;;;-1.81;96.86
21359;BME280;13506;50.852;20.632;2023-02-08T03:06:00;100754.31;;;-1.79;96.56
21359;BME280;13506;50.852;20.632;2023-02-08T03:09:02;100759.44;;;-1.79;96.59
21359;BME280;13506;50.852;20.632;2023-02-08T03:11:35;100761.19;;;-1.78;97.01
21359;BME280;13506;50.852;20.632;2023-02-08T03:14:26;100769.78;;;-1.76;96.58
21359;BME280;13506;50.852;20.632;2023-02-08T03:17:08;100765.53;;;-1.73;96.87
21359;BME280;13506;50.852;20.632;2023-02-08T03:19:47;100762.97;;;-1.74;97.10
21359;BME280;13506;50.852;20.632;2023-02-08T03:22:23;100772.38;;;-1.73;97.38
21359;BME280;13506;50.852;20.632;2023-02-08T03:24:54;100776.69;;;-1.71;96.85
21359;BME280;13506;50.852;20.632;2023-02-08T03:27:30;100765.56;;;-1.71;96.84
21359;BME280;13506;50.852;20.632;2023-02-08T03:30:02;100764.75;;;-1.70;97.42
21359;BME280;13506;50.852;20.632;2023-02-08T03:32:41;100774.16;;;-1.69;97.41
21359;BME280;13506;50.852;20.632;2023-02-08T03:35:15;100769.88;;;-1.70;97.73
21359;BME280;13506;50.852;20.632;2023-02-08T03:37:51;100778.34;;;-1.74;98.46
21359;BME280;13506;50.852;20.632;2023-02-08T03:40:23;100772.34;;;-1.75;98.60
21359;BME280;13506;50.852;20.632;2023-02-08T03:42:53;100774.13;;;-1.72;98.61
21359;BME280;13506;50.852;20.632;2023-02-08T03:45:27;100772.06;;;-1.90;99.48
21359;BME280;13506;50.852;20.632;2023-02-08T03:48:00;100786.84;;;-2.24;100.00
21359;BME280;13506;50.852;20.632;2023-02-08T03:50:33;100782.81;;;-2.11;100.00
21359;BME280;13506;50.852;20.632;2023-02-08T03:53:03;100781.28;;;-2.00;100.00
21359;BME280;13506;50.852;20.632;2023-02-08T03:55:35;100779.47;;;-2.07;100.00
21359;BME280;13506;50.852;20.632;2023-02-08T03:58:07;100771.72;;;-2.10;100.00
21359;BME280;13506;50.852;20.632;2023-02-08T04:00:40;100785.44;;;-2.07;100.00
21359;BME280;13506;50.852;20.632;2023-02-08T04:03:14;100783.84;;;-2.01;100.00
21359;BME280;13506;50.852;20.632;2023-02-08T04:05:45;100783.47;;;-2.23;100.00
21359;BME280;13506;50.852;20.632;2023-02-08T04:08:13;100771.84;;;-2.04;100.00
21359;BME280;13506;50.852;20.632;2023-02-08T04:10:42;100777.09;;;-1.96;100.00
21359;BME280;13506;50.852;20.632;2023-02-08T04:13:09;100766.91;;;-1.92;100.00
21359;BME280;13506;50.852;20.632;2023-02-08T04:15:38;100786.72;;;-1.84;100.00
21359;BME280;13506;50.852;20.632;2023-02-08T04:18:06;100788.50;;;-1.80;100.00
21359;BME280;13506;50.852;20.632;2023-02-08T04:20:33;100780.84;;;-1.77;100.00
21359;BME280;13506;50.852;20.632;2023-02-08T04:23:03;100784.31;;;-1.75;99.61
21359;BME280;13506;50.852;20.632;2023-02-08T04:25:31;100795.50;;;-1.72;99.71
21359;BME280;13506;50.852;20.632;2023-02-08T04:27:58;100797.25;;;-1.69;99.43
21359;BME280;13506;50.852;20.632;2023-02-08T04:30:26;100798.19;;;-1.65;99.02
21359;BME280;13506;50.852;20.632;2023-02-08T04:32:54;100799.97;;;-1.61;99.13
21359;BME280;13506;50.852;20.632;2023-02-08T04:35:22;100802.50;;;-1.63;99.11
21359;BME280;13506;50.852;20.632;2023-02-08T04:37:50;100803.41;;;-1.59;98.07
21359;BME280;13506;50.852;20.632;2023-02-08T04:40:20;100800.00;;;-1.58;97.54
21359;BME280;13506;50.852;20.632;2023-02-08T04:42:47;100805.09;;;-1.61;97.68
21359;BME280;13506;50.852;20.632;2023-02-08T04:45:15;100803.38;;;-1.61;97.97
21359;BME280;13506;50.852;20.632;2023-02-08T04:47:43;100811.00;;;-1.64;98.39
21359;BME280;13506;50.852;20.632;2023-02-08T04:50:11;100816.09;;;-1.67;98.16
21359;BME280;13506;50.852;20.632;2023-02-08T04:52:39;100815.28;;;-1.64;98.22
21359;BME280;13506;50.852;20.632;2023-02-08T04:55:07;100817.94;;;-1.60;97.65
21359;BME280;13506;50.852;20.632;2023-02-08T04:57:37;100811.94;;;-1.60;97.99
21359;BME280;13506;50.852;20.632;2023-02-08T05:00:06;100820.53;;;-1.58;97.16
21359;BME280;13506;50.852;20.632;2023-02-08T05:02:33;100818.72;;;-1.64;97.78
21359;BME280;13506;50.852;20.632;2023-02-08T05:05:01;100816.22;;;-1.61;97.07
21359;BME280;13506;50.852;20.632;2023-02-08T05:07:29;100816.25;;;-1.58;96.30
21359;BME280;13506;50.852;20.632;2023-02-08T05:09:57;100818.84;;;-1.56;96.63
21359;BME280;13506;50.852;20.632;2023-02-08T05:12:25;100815.34;;;-1.60;96.40
21359;BME280;13506;50.852;20.632;2023-02-08T05:14:55;100820.59;;;-1.55;96.87
21359;BME280;13506;50.852;20.632;2023-02-08T05:17:23;100812.91;;;-1.54;95.66
21359;BME280;13506;50.852;20.632;2023-02-08T05:19:50;100809.50;;;-1.53;95.60
21359;BME280;13506;50.852;20.632;2023-02-08T05:22:18;100815.50;;;-1.52;95.88
21359;BME280;13506;50.852;20.632;2023-02-08T05:24:46;100818.09;;;-1.51;96.13
21359;BME280;13506;50.852;20.632;2023-02-08T05:27:14;100831.63;;;-1.61;95.39
21359;BME280;13506;50.852;20.632;2023-02-08T05:29:42;100820.38;;;-1.66;95.79
21359;BME280;13506;50.852;20.632;2023-02-08T05:32:11;100832.31;;;-1.68;97.01
21359;BME280;13506;50.852;20.632;2023-02-08T05:34:39;100827.59;;;-1.94;96.70
21359;BME280;13506;50.852;20.632;2023-02-08T05:37:07;100827.53;;;-1.97;97.96
21359;BME280;13506;50.852;20.632;2023-02-08T05:39:35;100823.97;;;-2.05;99.40
21359;BME280;13506;50.852;20.632;2023-02-08T05:42:03;100828.34;;;-1.99;99.12
21359;BME280;13506;50.852;20.632;2023-02-08T05:44:31;100832.72;;;-1.94;97.82
21359;BME280;13506;50.852;20.632;2023-02-08T05:46:59;100822.56;;;-1.88;97.12
21359;BME280;13506;50.852;20.632;2023-02-08T05:49:29;100832.78;;;-1.91;97.47
21359;BME280;13506;50.852;20.632;2023-02-08T05:51:56;100828.59;;;-1.85;97.41
21359;BME280;13506;50.852;20.632;2023-02-08T05:54:24;100830.91;;;-1.98;98.34
21359;BME280;13506;50.852;20.632;2023-02-08T05:56:52;100829.25;;;-1.96;98.12
21359;BME280;13506;50.852;20.632;2023-02-08T05:59:20;100825.88;;;-1.95;97.75
21359;BME280;13506;50.852;20.632;2023-02-08T06:01:48;100826.59;;;-2.00;96.79
21359;BME280;13506;50.852;20.632;2023-02-08T06:04:16;100828.97;;;-2.11;96.64
21359;BME280;13506;50.852;20.632;2023-02-08T06:06:45;100824.81;;;-2.04;97.85
21359;BME280;13506;50.852;20.632;2023-02-08T06:09:13;100828.31;;;-2.01;97.05
21359;BME280;13506;50.852;20.632;2023-02-08T06:11:41;100844.47;;;-2.05;96.12
21359;BME280;13506;50.852;20.632;2023-02-08T06:14:09;100839.63;;;-2.34;96.77
21359;BME280;13506;50.852;20.632;2023-02-08T06:16:37;100841.41;;;-2.30;97.61
21359;BME280;13506;50.852;20.632;2023-02-08T06:19:05;100855.31;;;-2.59;98.91
21359;BME280;13506;50.852;20.632;2023-02-08T06:21:33;100858.16;;;-2.86;100.00
21359;BME280;13506;50.852;20.632;2023-02-08T06:24:03;100864.44;;;-3.08;100.00
21359;BME280;13506;50.852;20.632;2023-02-08T06:26:32;100875.22;;;-3.22;100.00
21359;BME280;13506;50.852;20.632;2023-02-08T06:29:00;100871.03;;;-3.18;100.00
21359;BME280;13506;50.852;20.632;2023-02-08T06:31:28;100864.66;;;-3.34;100.00
21359;BME280;13506;50.852;20.632;2023-02-08T06:33:56;100881.41;;;-3.12;100.00
21359;BME280;13506;50.852;20.632;2023-02-08T06:36:24;100882.28;;;-3.12;100.00
21359;BME280;13506;50.852;20.632;2023-02-08T06:38:52;100875.69;;;-3.02;100.00
21359;BME280;13506;50.852;20.632;2023-02-08T06:41:21;100882.81;;;-2.90;100.00
21359;BME280;13506;50.852;20.632;2023-02-08T06:43:49;100886.63;;;-2.73;100.00
21359;BME280;13506;50.852;20.632;2023-02-08T06:46:17;100891.03;;;-2.65;100.00
21359;BME280;13506;50.852;20.632;2023-02-08T06:48:45;100885.00;;;-2.69;100.00
21359;BME280;13506;50.852;20.632;2023-02-08T06:51:12;100889.66;;;-2.51;100.00
21359;BME280;13506;50.852;20.632;2023-02-08T06:53:40;100883.81;;;-2.45;100.00
21359;BME280;13506;50.852;20.632;2023-02-08T06:56:08;100895.63;;;-2.51;100.00
21359;BME280;13506;50.852;20.632;2023-02-08T06:58:37;100893.09;;;-2.87;100.00
21359;BME280;13506;50.852;20.632;2023-02-08T07:01:05;100889.94;;;-2.77;100.00
21359;BME280;13506;50.852;20.632;2023-02-08T07:03:33;100895.41;;;-2.61;100.00
21359;BME280;13506;50.852;20.632;2023-02-08T07:06:01;100899.94;;;-2.50;100.00
21359;BME280;13506;50.852;20.632;2023-02-08T07:08:29;100895.91;;;-2.40;100.00
21359;BME280;13506;50.852;20.632;2023-02-08T07:10:56;100900.53;;;-2.22;100.00
21359;BME280;13506;50.852;20.632;2023-02-08T07:13:24;100903.59;;;-2.40;100.00
21359;BME280;13506;50.852;20.632;2023-02-08T07:15:53;100900.00;;;-2.48;100.00
21359;BME280;13506;50.852;20.632;2023-02-08T07:18:21;100905.31;;;-2.39;100.00
21359;BME280;13506;50.852;20.632;2023-02-08T07:20:49;100910.97;;;-2.54;100.00
21359;BME280;13506;50.852;20.632;2023-02-08T07:23:17;100916.75;;;-2.97;100.00
21359;BME280;13506;50.852;20.632;2023-02-08T07:25:46;100908.56;;;-2.84;100.00
21359;BME280;13506;50.852;20.632;2023-02-08T07:28:22;100902.06;;;-2.70;100.00
21359;BME280;13506;50.852;20.632;2023-02-08T07:30:50;100913.63;;;-2.49;100.00
21359;BME280;13506;50.852;20.632;2023-02-08T07:33:22;100917.25;;;-2.39;100.00
21359;BME280;13506;50.852;20.632;2023-02-08T07:35:50;100918.25;;;-2.33;100.00
21359;BME280;13506;50.852;20.632;2023-02-08T07:38:18;100917.75;;;-2.16;100.00
21359;BME280;13506;50.852;20.632;2023-02-08T07:40:46;100920.31;;;-2.56;100.00
21359;BME280;13506;50.852;20.632;2023-02-08T07:43:14;100921.22;;;-2.54;100.00
21359;BME280;13506;50.852;20.632;2023-02-08T07:45:51;100920.69;;;-2.39;100.00
21359;BME280;13506;50.852;20.632;2023-02-08T07:48:21;100926.50;;;-2.84;100.00
21359;BME280;13506;50.852;20.632;2023-02-08T07:50:48;100928.19;;;-2.48;100.00
21359;BME280;13506;50.852;20.632;2023-02-08T07:53:16;100932.13;;;-2.24;100.00
21359;BME280;13506;50.852;20.632;2023-02-08T07:55:45;100932.81;;;-1.91;100.00
21359;BME280;13506;50.852;20.632;2023-02-08T07:58:13;100937.31;;;-1.80;100.00
21359;BME280;13506;50.852;20.632;2023-02-08T08:00:41;100934.28;;;-1.61;97.63
21359;BME280;13506;50.852;20.632;2023-02-08T08:03:09;100926.13;;;-1.38;97.01
21359;BME280;13506;50.852;20.632;2023-02-08T08:05:40;100929.53;;;-1.39;96.46
21359;BME280;13506;50.852;20.632;2023-02-08T08:08:09;100941.97;;;-2.03;97.32
21359;BME280;13506;50.852;20.632;2023-02-08T08:10:37;100938.09;;;-1.84;97.70
21359;BME280;13506;50.852;20.632;2023-02-08T08:13:05;100950.78;;;-1.91;99.43
21359;BME280;13506;50.852;20.632;2023-02-08T08:15:33;100951.63;;;-2.30;100.00
21359;BME280;13506;50.852;20.632;2023-02-08T08:18:01;100950.25;;;-2.53;100.00
21359;BME280;13506;50.852;20.632;2023-02-08T08:20:29;100963.25;;;-2.45;100.00
21359;BME280;13506;50.852;20.632;2023-02-08T08:23:00;100961.34;;;-2.91;100.00
21359;BME280;13506;50.852;20.632;2023-02-08T08:25:28;100962.25;;;-2.87;100.00
21359;BME280;13506;50.852;20.632;2023-02-08T08:27:56;100962.81;;;-3.32;100.00
21359;BME280;13506;50.852;20.632;2023-02-08T08:30:24;100966.97;;;-3.36;100.00
21359;BME280;13506;50.852;20.632;2023-02-08T08:32:52;100974.94;;;-3.26;100.00
21359;BME280;13506;50.852;20.632;2023-02-08T08:35:20;100971.28;;;-3.66;100.00
21359;BME280;13506;50.852;20.632;2023-02-08T08:37:48;100965.34;;;-3.34;100.00
21359;BME280;13506;50.852;20.632;2023-02-08T08:40:17;100982.72;;;-3.22;100.00
21359;BME280;13506;50.852;20.632;2023-02-08T08:42:46;100970.44;;;-3.35;100.00
21359;BME280;13506;50.852;20.632;2023-02-08T08:45:13;100988.03;;;-3.14;100.00
21359;BME280;13506;50.852;20.632;2023-02-08T08:47:41;100979.31;;;-3.21;100.00
21359;BME280;13506;50.852;20.632;2023-02-08T08:50:09;100988.47;;;-2.97;100.00
21359;BME280;13506;50.852;20.632;2023-02-08T08:52:37;100987.28;;;-2.42;100.00
21359;BME280;13506;50.852;20.632;2023-02-08T08:55:06;100992.59;;;-1.95;100.00
21359;BME280;13506;50.852;20.632;2023-02-08T08:57:36;100988.84;;;-2.09;98.16
21359;BME280;13506;50.852;20.632;2023-02-08T09:00:04;100993.47;;;-1.52;96.27
21359;BME280;13506;50.852;20.632;2023-02-08T09:02:33;100986.94;;;0.29;88.52
21359;BME280;13506;50.852;20.632;2023-02-08T09:05:01;100990.75;;;1.55;82.97
21359;BME280;13506;50.852;20.632;2023-02-08T09:07:32;100976.81;;;3.20;75.42
21359;BME280;13506;50.852;20.632;2023-02-08T09:10:00;100979.78;;;4.85;70.43
21359;BME280;13506;50.852;20.632;2023-02-08T09:12:28;100983.69;;;5.48;63.76
21359;BME280;13506;50.852;20.632;2023-02-08T09:14:57;100984.28;;;5.74;54.40
21359;BME280;13506;50.852;20.632;2023-02-08T09:17:26;100983.44;;;5.71;52.61
21359;BME280;13506;50.852;20.632;2023-02-08T09:19:53;100981.66;;;4.58;53.06
21359;BME280;13506;50.852;20.632;2023-02-08T09:22:22;100981.13;;;3.59;54.52
21359;BME280;13506;50.852;20.632;2023-02-08T09:24:52;100985.16;;;2.27;56.88
21359;BME280;13506;50.852;20.632;2023-02-08T09:27:20;101009.69;;;0.67;62.63
21359;BME280;13506;50.852;20.632;2023-02-08T09:29:48;100999.50;;;0.04;68.50
21359;BME280;13506;50.852;20.632;2023-02-08T09:32:17;101007.72;;;-0.20;72.76
21359;BME280;13506;50.852;20.632;2023-02-08T09:34:46;101004.88;;;-0.37;74.01
21359;BME280;13506;50.852;20.632;2023-02-08T09:37:15;101003.22;;;0.26;71.24
21359;BME280;13506;50.852;20.632;2023-02-08T09:39:44;101007.38;;;0.16;72.15
21359;BME280;13506;50.852;20.632;2023-02-08T09:42:24;101001.78;;;0.48;68.31
21359;BME280;13506;50.852;20.632;2023-02-08T09:45:18;101001.72;;;1.28;67.77
21359;BME280;13506;50.852;20.632;2023-02-08T09:47:59;100996.34;;;2.27;65.22
21359;BME280;13506;50.852;20.632;2023-02-08T09:50:36;100991.16;;;2.18;62.27
21359;BME280;13506;50.852;20.632;2023-02-08T09:53:12;100988.53;;;0.94;65.05
21359;BME280;13506;50.852;20.632;2023-02-08T09:55:45;100997.19;;;0.26;69.44
21359;BME280;13506;50.852;20.632;2023-02-08T09:58:23;100986.59;;;1.71;67.46
21359;BME280;13506;50.852;20.632;2023-02-08T10:00:53;100989.31;;;1.92;62.92
21359;BME280;13506;50.852;20.632;2023-02-08T10:03:33;100978.31;;;2.38;59.50
21359;BME280;13506;50.852;20.632;2023-02-08T10:06:03;100986.53;;;1.66;59.87
21359;BME280;13506;50.852;20.632;2023-02-08T10:08:32;100989.09;;;0.67;62.43
21359;BME280;13506;50.852;20.632;2023-02-08T10:11:18;100998.66;;;0.77;66.11
21359;BME280;13506;50.852;20.632;2023-02-08T10:16:54;100984.28;;;-0.40;65.35
21359;BME280;13506;50.852;20.632;2023-02-08T10:19:33;101002.31;;;-0.90;70.04
21359;BME280;13506;50.852;20.632;2023-02-08T10:22:17;100982.94;;;-0.71;71.78
21359;BME280;13506;50.852;20.632;2023-02-08T10:25:08;100995.44;;;-0.39;71.11
21359;BME280;13506;50.852;20.632;2023-02-08T10:27:47;100994.81;;;-0.78;71.33
21359;BME280;13506;50.852;20.632;2023-02-08T10:30:26;100991.09;;;-0.95;70.89
21359;BME280;13506;50.852;20.632;2023-02-08T10:33:00;100991.53;;;-0.69;69.25
21359;BME280;13506;50.852;20.632;2023-02-08T10:35:32;100986.03;;;-0.91;69.45
21359;BME280;13506;50.852;20.632;2023-02-08T10:38:23;100980.97;;;-0.31;69.31
21359;BME280;13506;50.852;20.632;2023-02-08T10:40:55;100987.91;;;-0.27;67.85
21359;BME280;13506;50.852;20.632;2023-02-08T10:43:33;100978.94;;;-0.52;68.87
21359;BME280;13506;50.852;20.632;2023-02-08T10:46:11;100979.81;;;-0.53;70.49
21359;BME280;13506;50.852;20.632;2023-02-08T10:48:57;100982.03;;;-0.75;70.65
21359;BME280;13506;50.852;20.632;2023-02-08T10:51:28;100984.41;;;-0.87;70.51
21359;BME280;13506;50.852;20.632;2023-02-08T10:53:57;100986.19;;;-0.81;69.45
21359;BME280;13506;50.852;20.632;2023-02-08T10:56:38;100981.78;;;-0.35;66.81
21359;BME280;13506;50.852;20.632;2023-02-08T10:59:19;100971.94;;;-0.03;63.55
21359;BME280;13506;50.852;20.632;2023-02-08T11:01:48;100991.94;;;0.18;61.19
21359;BME280;13506;50.852;20.632;2023-02-08T11:04:17;100980.13;;;0.32;61.73
21359;BME280;13506;50.852;20.632;2023-02-08T11:06:48;100982.88;;;-0.19;63.15
21359;BME280;13506;50.852;20.632;2023-02-08T11:09:22;100978.66;;;-0.71;65.17
21359;BME280;13506;50.852;20.632;2023-02-08T11:11:51;100980.69;;;-0.51;66.33
21359;BME280;13506;50.852;20.632;2023-02-08T11:14:24;100980.06;;;-0.35;66.04
21359;BME280;13506;50.852;20.632;2023-02-08T11:16:54;100985.50;;;-0.73;67.26
21359;BME280;13506;50.852;20.632;2023-02-08T11:19:33;100978.28;;;-0.92;69.32
21359;BME280;13506;50.852;20.632;2023-02-08T11:22:11;100975.44;;;-1.09;69.52
21359;BME280;13506;50.852;20.632;2023-02-08T11:24:41;100979.09;;;-0.41;67.23
21359;BME280;13506;50.852;20.632;2023-02-08T11:27:17;100989.72;;;-0.20;64.76
21359;BME280;13506;50.852;20.632;2023-02-08T11:30:17;100982.72;;;-0.30;64.01
21359;BME280;13506;50.852;20.632;2023-02-08T11:32:48;100972.00;;;0.00;63.65
21359;BME280;13506;50.852;20.632;2023-02-08T11:35:30;100979.19;;;-0.37;63.85
21359;BME280;13506;50.852;20.632;2023-02-08T11:38:01;100974.97;;;0.32;62.47
21359;BME280;13506;50.852;20.632;2023-02-08T11:40:35;100976.16;;;0.59;62.58
21359;BME280;13506;50.852;20.632;2023-02-08T11:43:04;100973.88;;;0.88;63.01
21359;BME280;13506;50.852;20.632;2023-02-08T11:45:34;100965.41;;;1.05;61.25
21359;BME280;13506;50.852;20.632;2023-02-08T11:48:04;100970.84;;;1.38;60.52
21359;BME280;13506;50.852;20.632;2023-02-08T11:50:43;100964.25;;;1.77;59.21
21359;BME280;13506;50.852;20.632;2023-02-08T11:53:21;100960.22;;;2.30;57.54
21359;BME280;13506;50.852;20.632;2023-02-08T11:56:15;100960.00;;;1.86;54.83
21359;BME280;13506;50.852;20.632;2023-02-08T11:58:57;100947.25;;;2.26;55.10
21359;BME280;13506;50.852;20.632;2023-02-08T12:01:27;100945.75;;;2.77;55.43
21359;BME280;13506;50.852;20.632;2023-02-08T12:03:58;100948.31;;;2.85;54.29
21359;BME280;13506;50.852;20.632;2023-02-08T12:09:55;100924.19;;;2.73;54.64
21359;BME280;13506;50.852;20.632;2023-02-08T12:12:40;100933.56;;;2.39;55.68
21359;BME280;13506;50.852;20.632;2023-02-08T12:15:21;100925.00;;;2.48;55.50
21359;BME280;13506;50.852;20.632;2023-02-08T12:18:19;100931.88;;;2.50;55.64
21359;BME280;13506;50.852;20.632;2023-02-08T12:20:52;100930.13;;;2.43;56.34
21359;BME280;13506;50.852;20.632;2023-02-08T12:23:48;100916.41;;;2.59;56.43
21359;BME280;13506;50.852;20.632;2023-02-08T12:29:29;100919.03;;;2.84;54.96
21359;BME280;13506;50.852;20.632;2023-02-08T12:32:11;100909.53;;;2.71;54.62
21359;BME280;13506;50.852;20.632;2023-02-08T12:34:54;100910.41;;;2.87;54.68
21359;BME280;13506;50.852;20.632;2023-02-08T12:37:37;100908.72;;;2.98;54.46
21359;BME280;13506;50.852;20.632;2023-02-08T12:40:37;100910.41;;;2.79;53.91
21359;BME280;13506;50.852;20.632;2023-02-08T12:43:40;100889.72;;;2.70;54.63
21359;BME280;13506;50.852;20.632;2023-02-08T12:46:43;100881.78;;;2.08;55.86
21359;BME280;13506;50.852;20.632;2023-02-08T12:49:48;100879.16;;;1.96;55.87
21359;BME280;13506;50.852;20.632;2023-02-08T12:52:30;100888.44;;;1.54;56.72
21359;BME280;13506;50.852;20.632;2023-02-08T12:55:08;100891.16;;;1.85;56.82
21359;BME280;13506;50.852;20.632;2023-02-08T12:57:43;100891.22;;;1.92;56.58
21359;BME280;13506;50.852;20.632;2023-02-08T13:00:21;100893.72;;;1.78;56.66
21359;BME280;13506;50.852;20.632;2023-02-08T13:02:55;100892.75;;;1.56;57.23
21359;BME280;13506;50.852;20.632;2023-02-08T13:05:30;100889.19;;;1.33;56.71
21359;BME280;13506;50.852;20.632;2023-02-08T13:08:06;100894.31;;;1.34;58.06
21359;BME280;13506;50.852;20.632;2023-02-08T13:10:38;100882.47;;;1.64;57.78
21359;BME280;13506;50.852;20.632;2023-02-08T13:13:15;100883.28;;;1.57;57.17
21359;BME280;13506;50.852;20.632;2023-02-08T13:15:52;100886.84;;;1.77;56.55
21359;BME280;13506;50.852;20.632;2023-02-08T13:18:27;100892.00;;;1.77;56.20